Time;durP1;ratioP1;P1;durP2;ratioP2;P2;SDS_P1;SDS_P2;PMS_P1;PMS_P2;Temp;Humidity;BMP_temperature;BMP_pressure;BME280_temperature;BME280_humidity;BME280_pressure;Samples;Min_cycle;Max_cycle;Signal;HPM_P1;HPM_P2
2022/03/14 00:00:11;;;;;;;19.30;9.27;;;6.20;99.90;;;;;;4972998;28;20779;-70
2022/03/14 00:02:37;;;;;;;13.27;8.00;;;6.20;99.90;;;;;;4972513;28;20934;-70
2022/03/14 00:05:05;;;;;;;11.80;7.73;;;6.20;99.90;;;;;;4972765;28;20426;-70
2022/03/14 00:07:36;;;;;;;12.00;8.30;;;6.20;99.90;;;;;;4972632;28;20733;-69
2022/03/14 00:10:03;;;;;;;17.07;10.50;;;6.30;99.90;;;;;;4972822;28;20393;-69
2022/03/14 00:12:30;;;;;;;12.00;9.07;;;6.30;99.90;;;;;;4971010;28;20495;-70
2022/03/14 00:14:57;;;;;;;16.10;9.43;;;6.30;99.90;;;;;;4972572;28;20407;-70
2022/03/14 00:17:26;;;;;;;14.10;9.40;;;6.40;99.90;;;;;;4972430;28;20423;-69
2022/03/14 00:19:53;;;;;;;14.30;9.90;;;6.40;99.90;;;;;;4972474;28;20408;-69
2022/03/14 00:22:22;;;;;;;13.07;8.10;;;6.40;99.90;;;;;;4971712;28;20439;-69
2022/03/14 00:24:48;;;;;;;14.00;9.57;;;6.60;99.90;;;;;;4971347;28;20408;-70
2022/03/14 00:27:14;;;;;;;17.00;10.47;;;6.60;99.90;;;;;;4972685;28;20449;-70
2022/03/14 00:29:40;;;;;;;21.83;14.00;;;6.60;99.90;;;;;;4972662;28;20423;-70
2022/03/14 00:32:06;;;;;;;20.90;12.30;;;6.80;99.90;;;;;;4972480;28;20435;-70
2022/03/14 00:34:32;;;;;;;20.50;12.40;;;6.90;99.90;;;;;;4972388;28;20423;-69
2022/03/14 00:36:57;;;;;;;22.03;13.10;;;7.00;99.90;;;;;;4972306;28;20476;-69
2022/03/14 00:39:23;;;;;;;25.63;14.37;;;7.10;99.90;;;;;;4972176;28;20175;-69
2022/03/14 00:41:49;;;;;;;19.63;12.57;;;7.10;99.90;;;;;;4972479;28;20205;-70
2022/03/14 00:44:16;;;;;;;19.17;11.70;;;7.20;99.90;;;;;;4972353;28;20193;-69
2022/03/14 00:46:45;;;;;;;18.13;12.10;;;7.20;99.90;;;;;;4972208;28;20184;-70
2022/03/14 00:49:11;;;;;;;21.20;13.07;;;7.30;99.90;;;;;;4973741;28;20433;-69
2022/03/14 00:51:37;;;;;;;19.70;12.53;;;7.30;99.90;;;;;;4976185;28;20447;-70
2022/03/14 00:54:03;;;;;;;19.57;12.80;;;7.30;99.90;;;;;;4976527;28;20417;-70
2022/03/14 00:56:29;;;;;;;25.20;12.83;;;7.40;99.90;;;;;;4974920;28;20178;-70
2022/03/14 00:58:55;;;;;;;22.73;13.27;;;7.50;99.90;;;;;;4976341;28;20947;-70
2022/03/14 01:01:21;;;;;;;29.83;12.57;;;7.60;99.90;;;;;;4975527;28;20215;-70
2022/03/14 01:03:47;;;;;;;20.97;13.30;;;7.60;99.90;;;;;;4976233;28;20582;-70
2022/03/14 01:06:13;;;;;;;20.80;12.30;;;7.70;99.90;;;;;;4975600;28;20555;-70
2022/03/14 01:08:39;;;;;;;20.97;13.03;;;7.70;99.90;;;;;;4976240;28;20261;-70
2022/03/14 01:11:04;;;;;;;20.50;11.70;;;7.90;99.90;;;;;;4974346;28;20424;-70
2022/03/14 01:13:30;;;;;;;21.20;12.80;;;8.00;99.90;;;;;;4975709;28;20170;-69
2022/03/14 01:15:56;;;;;;;24.07;13.00;;;8.00;99.90;;;;;;4975846;28;20528;-69
2022/03/14 01:18:21;;;;;;;24.70;14.20;;;7.90;99.90;;;;;;4975722;28;20178;-70
2022/03/14 01:20:47;;;;;;;23.40;12.03;;;8.00;99.90;;;;;;4976183;28;20237;-69
2022/03/14 01:23:13;;;;;;;21.10;13.73;;;8.00;99.90;;;;;;4975683;28;20556;-69
2022/03/14 01:25:38;;;;;;;23.77;13.77;;;8.00;99.90;;;;;;4975914;28;20203;-69
2022/03/14 01:28:05;;;;;;;18.97;12.90;;;8.00;99.90;;;;;;4975767;28;20538;-70
2022/03/14 01:30:31;;;;;;;23.33;13.33;;;8.00;99.90;;;;;;4975675;28;20185;-70
2022/03/14 01:32:58;;;;;;;25.77;15.10;;;8.20;99.90;;;;;;4975650;28;20417;-70
2022/03/14 01:35:24;;;;;;;28.23;15.10;;;8.20;99.90;;;;;;4975812;28;20413;-70
2022/03/14 01:37:52;;;;;;;27.80;16.27;;;8.30;99.90;;;;;;4958266;28;20440;-70
2022/03/14 01:40:19;;;;;;;21.30;14.13;;;8.50;99.90;;;;;;4974550;28;20184;-70
2022/03/14 01:42:45;;;;;;;23.17;15.47;;;8.60;99.90;;;;;;4975535;28;20414;-70
2022/03/14 01:45:12;;;;;;;21.13;13.80;;;8.70;99.90;;;;;;4975417;28;20555;-70
2022/03/14 01:47:39;;;;;;;22.60;15.70;;;8.80;99.90;;;;;;4975548;28;20885;-70
2022/03/14 01:50:06;;;;;;;25.03;14.90;;;9.00;99.90;;;;;;4975706;28;20399;-70
2022/03/14 01:52:32;;;;;;;20.40;14.83;;;9.00;99.90;;;;;;4975533;28;20862;-70
2022/03/14 01:54:58;;;;;;;19.23;14.80;;;9.10;99.90;;;;;;4974252;28;20433;-70
2022/03/14 01:57:24;;;;;;;29.83;15.47;;;9.20;99.90;;;;;;4975269;28;20894;-69
2022/03/14 01:59:49;;;;;;;21.23;14.33;;;9.20;99.90;;;;;;4974753;28;20179;-70
2022/03/14 03:32:52;;;;;;;5.40;4.63;;;8.50;99.90;;;;;;5157129;23;20490;-76
2022/03/14 03:35:18;;;;;;;5.43;4.90;;;8.50;99.90;;;;;;4987240;28;20415;-76
2022/03/14 03:37:44;;;;;;;6.03;4.80;;;8.40;99.90;;;;;;4974314;28;20529;-76
2022/03/14 03:40:10;;;;;;;5.97;4.43;;;8.40;99.90;;;;;;4989460;28;20197;-76
2022/03/14 03:42:35;;;;;;;6.23;5.00;;;8.30;99.90;;;;;;4976338;28;20210;-75
2022/03/14 03:45:01;;;;;;;7.53;4.60;;;8.30;99.90;;;;;;4969542;28;20899;-73
2022/03/14 03:47:27;;;;;;;10.20;5.27;;;8.30;99.90;;;;;;4970813;28;20633;-73
2022/03/14 03:49:52;;;;;;;6.60;4.90;;;8.30;99.90;;;;;;4970903;28;20182;-74
2022/03/14 03:52:18;;;;;;;9.53;5.47;;;8.40;99.90;;;;;;4970065;28;20200;-73
2022/03/14 03:54:44;;;;;;;7.63;6.13;;;8.40;99.90;;;;;;4970007;28;20211;-74
2022/03/14 03:57:09;;;;;;;9.77;6.33;;;8.40;99.90;;;;;;4968861;28;20234;-74
2022/03/14 03:59:35;;;;;;;11.00;6.33;;;8.40;99.90;;;;;;4970556;28;20190;-74
2022/03/14 04:02:02;;;;;;;8.80;5.33;;;8.30;99.90;;;;;;4969747;28;20441;-74
2022/03/14 04:04:29;;;;;;;18.53;5.83;;;8.30;99.90;;;;;;4969701;28;20725;-74
2022/03/14 04:06:57;;;;;;;9.10;5.77;;;8.20;99.90;;;;;;4970446;28;20469;-74
2022/03/14 04:09:24;;;;;;;7.60;4.10;;;8.20;99.90;;;;;;4971493;28;20439;-74
2022/03/14 04:11:50;;;;;;;6.33;5.50;;;8.20;99.90;;;;;;4969477;28;20976;-74
2022/03/14 04:14:16;;;;;;;4.60;4.00;;;8.20;99.90;;;;;;4970851;28;20517;-74
2022/03/14 04:16:42;;;;;;;5.87;4.50;;;8.20;99.90;;;;;;4970406;28;20434;-74
2022/03/14 04:19:08;;;;;;;3.67;3.20;;;8.20;99.90;;;;;;4970207;28;20427;-74
2022/03/14 04:21:35;;;;;;;3.10;2.77;;;8.10;99.90;;;;;;4970446;28;20676;-73
2022/03/14 04:24:05;;;;;;;3.53;3.23;;;8.00;99.90;;;;;;4970456;28;20615;-73
2022/03/14 04:26:30;;;;;;;4.60;4.20;;;8.10;99.90;;;;;;4971354;28;20689;-73
2022/03/14 04:28:56;;;;;;;10.20;4.87;;;8.00;99.90;;;;;;4970234;28;20992;-75
2022/03/14 04:31:22;;;;;;;6.77;4.87;;;7.90;99.90;;;;;;4969611;28;20230;-76
2022/03/14 04:33:47;;;;;;;5.97;4.50;;;7.90;99.90;;;;;;4970906;28;20268;-75
2022/03/14 04:36:14;;;;;;;4.50;4.10;;;7.90;99.90;;;;;;4971162;28;20182;-75
2022/03/14 04:38:39;;;;;;;5.10;4.60;;;7.80;99.90;;;;;;4971688;28;20272;-76
2022/03/14 04:41:05;;;;;;;5.77;4.63;;;7.90;99.90;;;;;;4970919;28;20523;-74
2022/03/14 04:43:31;;;;;;;5.63;5.13;;;7.80;99.90;;;;;;4969493;28;20186;-76
2022/03/14 04:45:57;;;;;;;6.43;5.50;;;7.80;99.90;;;;;;4969690;28;20216;-76
2022/03/14 04:48:23;;;;;;;7.13;6.43;;;7.80;99.90;;;;;;4971062;28;20462;-76
2022/03/14 04:50:50;;;;;;;10.10;7.27;;;7.80;99.90;;;;;;4953971;28;20213;-76
2022/03/14 04:53:16;;;;;;;7.77;6.50;;;7.80;99.90;;;;;;4970030;28;20424;-75
2022/03/14 04:55:42;;;;;;;7.30;6.27;;;7.80;99.90;;;;;;4971172;28;20485;-76
2022/03/14 04:58:12;;;;;;;5.80;5.00;;;7.80;99.90;;;;;;4969483;28;20182;-75
2022/03/14 05:00:38;;;;;;;8.80;5.73;;;7.80;99.90;;;;;;4971274;28;20452;-76
2022/03/14 05:03:06;;;;;;;6.40;5.47;;;7.70;99.90;;;;;;4970526;28;20567;-76
2022/03/14 05:05:31;;;;;;;9.33;6.57;;;7.70;99.90;;;;;;4970972;28;20533;-76
2022/03/14 05:07:57;;;;;;;8.93;6.07;;;7.80;99.90;;;;;;4969179;28;20471;-75
2022/03/14 05:10:23;;;;;;;8.90;5.23;;;7.80;99.90;;;;;;4970904;28;20208;-76
2022/03/14 05:12:49;;;;;;;5.73;5.17;;;7.80;99.90;;;;;;4969178;28;20438;-75
2022/03/14 05:15:16;;;;;;;7.57;4.93;;;7.80;99.90;;;;;;4969703;28;20187;-76
2022/03/14 05:17:42;;;;;;;6.10;5.50;;;7.80;99.90;;;;;;4971183;28;20424;-76
2022/03/14 05:20:09;;;;;;;6.17;5.57;;;7.80;99.90;;;;;;4970248;28;20422;-75
2022/03/14 05:22:44;;;;;;;7.10;5.57;;;7.80;99.90;;;;;;4969745;28;20200;-74
2022/03/14 05:25:10;;;;;;;7.30;5.77;;;7.80;99.90;;;;;;4969468;28;20499;-74
2022/03/14 05:27:38;;;;;;;8.00;6.67;;;7.70;99.90;;;;;;4969262;28;20441;-73
2022/03/14 05:30:06;;;;;;;9.07;6.50;;;7.70;99.90;;;;;;4969270;28;20478;-73
2022/03/14 05:32:32;;;;;;;7.20;6.20;;;7.70;99.90;;;;;;4969392;28;20868;-75
2022/03/14 05:34:57;;;;;;;6.90;5.50;;;7.80;99.90;;;;;;4969731;28;20420;-74
2022/03/14 05:37:23;;;;;;;6.10;5.23;;;7.80;99.90;;;;;;4972926;28;20644;-74
2022/03/14 05:39:49;;;;;;;5.90;5.07;;;7.70;99.90;;;;;;4972669;28;20429;-73
2022/03/14 05:42:15;;;;;;;4.87;3.93;;;7.80;99.90;;;;;;4972621;28;20741;-74
2022/03/14 05:44:44;;;;;;;5.10;3.77;;;7.80;99.90;;;;;;4972521;28;20236;-74
2022/03/14 05:47:10;;;;;;;4.30;4.00;;;7.70;99.90;;;;;;4973318;28;20535;-74
2022/03/14 05:49:35;;;;;;;4.33;3.47;;;7.70;99.90;;;;;;4974023;28;20422;-74
2022/03/14 05:52:01;;;;;;;3.87;2.90;;;7.70;99.90;;;;;;4973822;28;20957;-74
2022/03/14 05:54:27;;;;;;;2.67;2.43;;;7.70;99.90;;;;;;4955886;28;20183;-73
2022/03/14 05:56:54;;;;;;;2.90;2.70;;;7.70;99.90;;;;;;4972888;28;20429;-74
2022/03/14 05:59:19;;;;;;;2.30;2.10;;;7.70;99.90;;;;;;4971752;28;20678;-74
2022/03/14 06:01:50;;;;;;;3.73;1.80;;;7.60;99.90;;;;;;4973046;28;20449;-73
2022/03/14 06:04:16;;;;;;;2.70;2.23;;;7.70;99.90;;;;;;4971778;28;20185;-74
2022/03/14 06:06:42;;;;;;;2.50;1.30;;;7.60;99.90;;;;;;4972569;28;20479;-74
2022/03/14 06:09:08;;;;;;;1.23;1.07;;;7.60;99.90;;;;;;4971980;28;20436;-74
2022/03/14 06:11:34;;;;;;;2.83;1.30;;;7.60;99.90;;;;;;4972419;28;20438;-74
2022/03/14 06:14:00;;;;;;;1.30;1.20;;;7.70;99.90;;;;;;4971205;28;20437;-74
2022/03/14 06:16:26;;;;;;;2.00;1.13;;;7.60;99.90;;;;;;4972402;28;20432;-73
2022/03/14 06:18:51;;;;;;;1.20;0.90;;;7.60;99.90;;;;;;4972402;28;20430;-74
2022/03/14 06:21:17;;;;;;;2.60;0.80;;;7.60;99.90;;;;;;4971623;28;20328;-75
2022/03/14 06:23:43;;;;;;;1.73;0.90;;;7.60;99.90;;;;;;4970940;28;20644;-74
2022/03/14 06:26:09;;;;;;;1.33;0.97;;;7.60;99.90;;;;;;4971764;28;20226;-74
2022/03/14 06:28:34;;;;;;;0.80;0.50;;;7.60;99.90;;;;;;4972157;28;20666;-74
2022/03/14 06:31:00;;;;;;;2.40;0.60;;;7.60;99.90;;;;;;4971693;28;20503;-74
2022/03/14 06:33:26;;;;;;;0.93;0.80;;;7.80;99.90;;;;;;4972084;28;20213;-73
2022/03/14 06:35:51;;;;;;;1.00;0.67;;;8.70;99.90;;;;;;4975221;28;20198;-75
2022/03/14 06:38:17;;;;;;;2.10;0.80;;;10.00;99.90;;;;;;4984298;28;20199;-74
2022/03/14 06:40:43;;;;;;;0.80;0.80;;;11.60;99.90;;;;;;4984953;28;20191;-73
2022/03/14 06:43:10;;;;;;;1.70;0.60;;;12.60;99.90;;;;;;4984436;28;20649;-74
2022/03/14 06:45:40;;;;;;;1.93;0.80;;;12.70;99.90;;;;;;4980773;28;20208;-75
2022/03/14 06:48:06;;;;;;;3.40;0.80;;;12.40;99.90;;;;;;4979033;28;20486;-74
2022/03/14 06:50:32;;;;;;;1.63;0.77;;;11.70;99.90;;;;;;4980957;28;20427;-75
2022/03/14 06:52:59;;;;;;;1.90;0.53;;;11.10;99.90;;;;;;4980719;28;20434;-75
2022/03/14 06:55:24;;;;;;;2.37;0.60;;;11.30;99.90;;;;;;4979137;28;20514;-73
2022/03/14 06:57:50;;;;;;;1.47;0.70;;;12.20;99.90;;;;;;4978681;28;20514;-75
2022/03/14 07:00:17;;;;;;;3.00;0.80;;;12.70;99.90;;;;;;4982621;28;20180;-75
2022/03/14 07:02:42;;;;;;;2.70;0.70;;;13.50;99.90;;;;;;4975247;28;20447;-75
2022/03/14 07:05:13;;;;;;;1.90;0.83;;;15.00;99.90;;;;;;4971718;28;20466;-75
2022/03/14 07:07:42;;;;;;;2.50;0.80;;;16.30;99.90;;;;;;4971233;28;20184;-75
2022/03/14 07:10:08;;;;;;;1.37;0.40;;;16.20;99.90;;;;;;4970890;28;20420;-75
2022/03/14 07:12:44;;;;;;;1.80;0.60;;;17.20;99.90;;;;;;4971908;28;20972;-75
2022/03/14 07:15:11;;;;;;;2.93;0.50;;;17.60;99.90;;;;;;4971683;28;20985;-75
2022/03/14 07:17:36;;;;;;;1.67;0.90;;;18.00;99.90;;;;;;4971330;28;20793;-75
2022/03/14 07:20:02;;;;;;;1.77;1.00;;;17.60;99.90;;;;;;4970659;28;20431;-74
2022/03/14 07:22:32;;;;;;;2.20;0.97;;;17.30;99.90;;;;;;4954849;28;20200;-75
2022/03/14 07:24:59;;;;;;;1.47;0.97;;;17.60;99.90;;;;;;4966881;28;20419;-75
2022/03/14 07:27:24;;;;;;;1.20;1.10;;;18.40;99.90;;;;;;4989422;28;20469;-74
2022/03/14 07:29:50;;;;;;;5.70;1.70;;;18.60;99.90;;;;;;4991483;28;20419;-74
2022/03/14 07:32:15;;;;;;;0.70;0.70;;;18.20;99.90;;;;;;4988788;28;20265;-74
2022/03/14 07:34:41;;;;;;;2.00;0.87;;;17.90;99.90;;;;;;4989262;28;20274;-74
2022/03/14 07:37:06;;;;;;;3.80;1.03;;;17.20;99.90;;;;;;4989613;28;20226;-74
2022/03/14 07:39:32;;;;;;;1.73;1.33;;;16.90;99.90;;;;;;4989656;28;20195;-75
2022/03/14 07:41:57;;;;;;;2.73;1.97;;;16.40;99.90;;;;;;4989769;28;20199;-74
2022/03/14 07:44:23;;;;;;;4.80;0.97;;;16.10;99.90;;;;;;4989089;28;20216;-75
2022/03/14 07:46:49;;;;;;;2.43;1.30;;;15.90;99.90;;;;;;4988704;28;20219;-75
2022/03/14 07:49:14;;;;;;;2.00;0.60;;;15.90;99.90;;;;;;4989620;28;20193;-75
2022/03/14 07:51:40;;;;;;;4.30;0.90;;;15.70;99.90;;;;;;4973754;28;20222;-75
2022/03/14 07:54:06;;;;;;;2.33;1.33;;;15.10;99.90;;;;;;4988693;28;20663;-75
2022/03/14 07:56:32;;;;;;;3.47;1.00;;;15.10;99.90;;;;;;4991035;28;20430;-75
2022/03/14 07:58:57;;;;;;;2.20;1.50;;;15.40;99.90;;;;;;4989037;28;20189;-77
2022/03/14 08:01:23;;;;;;;3.97;1.67;;;15.40;99.90;;;;;;4990201;28;20206;-75
2022/03/14 08:03:49;;;;;;;2.97;1.73;;;15.20;99.90;;;;;;4989735;28;20242;-74
2022/03/14 08:06:19;;;;;;;3.63;1.37;;;14.30;99.90;;;;;;4989638;28;20684;-74
2022/03/14 08:08:45;;;;;;;1.70;1.03;;;14.40;99.90;;;;;;4988402;28;20186;-73
2022/03/14 08:11:12;;;;;;;1.60;0.90;;;14.10;99.90;;;;;;4989255;28;20442;-73
2022/03/14 08:13:38;;;;;;;2.40;0.97;;;13.40;99.90;;;;;;4989956;28;20214;-73
2022/03/14 08:16:04;;;;;;;9.57;1.43;;;12.90;99.90;;;;;;4989263;28;21033;-73
2022/03/14 08:18:29;;;;;;;1.03;0.70;;;12.60;99.90;;;;;;4973305;28;20551;-73
2022/03/14 08:20:57;;;;;;;2.10;0.70;;;12.70;99.90;;;;;;4988498;28;20199;-73
2022/03/14 08:23:24;;;;;;;3.90;1.03;;;12.50;99.90;;;;;;4989522;28;20222;-73
2022/03/14 08:25:49;;;;;;;6.53;0.70;;;12.50;99.90;;;;;;4989717;28;20515;-73
2022/03/14 08:28:15;;;;;;;2.20;0.70;;;12.50;99.90;;;;;;4989054;28;20430;-73
2022/03/14 08:30:42;;;;;;;4.20;1.00;;;12.80;99.90;;;;;;4989331;28;20278;-73
2022/03/14 08:33:08;;;;;;;1.63;0.60;;;12.70;99.90;;;;;;4988051;28;20259;-74
2022/03/14 08:35:34;;;;;;;3.60;0.80;;;12.80;99.90;;;;;;4988804;28;20426;-73
2022/03/14 08:38:00;;;;;;;5.07;0.70;;;13.10;99.90;;;;;;4989037;28;20807;-73
2022/03/14 08:40:27;;;;;;;3.97;0.67;;;13.40;99.90;;;;;;4990191;28;20426;-73
2022/03/14 08:42:55;;;;;;;1.53;0.70;;;13.60;99.90;;;;;;4988693;28;20812;-73
2022/03/14 08:45:24;;;;;;;2.43;1.07;;;13.90;99.90;;;;;;4990083;28;20517;-72
2022/03/14 08:47:50;;;;;;;4.93;0.83;;;14.30;99.90;;;;;;4988511;28;20441;-72
2022/03/14 08:50:17;;;;;;;3.70;1.00;;;14.00;99.90;;;;;;4987343;28;21004;-72
2022/03/14 08:52:45;;;;;;;2.93;0.80;;;13.80;99.90;;;;;;4989393;28;20430;-73
2022/03/14 08:55:11;;;;;;;2.57;0.77;;;13.80;99.90;;;;;;4990334;28;20414;-72
2022/03/14 08:57:37;;;;;;;6.50;0.70;;;13.80;99.90;;;;;;4989855;28;20498;-73
2022/03/14 09:00:04;;;;;;;6.07;1.40;;;13.60;99.90;;;;;;4991122;28;20411;-73
2022/03/14 09:02:30;;;;;;;1.67;0.60;;;13.30;99.90;;;;;;4991449;28;20281;-73
2022/03/14 09:04:55;;;;;;;3.50;0.93;;;13.60;99.90;;;;;;4989010;28;20425;-73
2022/03/14 09:07:26;;;;;;;7.10;0.90;;;13.40;99.90;;;;;;4989373;28;20265;-73
2022/03/14 09:09:52;;;;;;;2.33;0.67;;;13.30;99.90;;;;;;4991829;28;20262;-74
2022/03/14 09:12:20;;;;;;;1.47;1.07;;;13.80;99.90;;;;;;4992491;28;20439;-73
2022/03/14 09:14:46;;;;;;;2.20;0.70;;;14.40;99.90;;;;;;4992191;28;20418;-73
2022/03/14 09:17:12;;;;;;;2.70;0.73;;;15.00;99.90;;;;;;4992340;28;20418;-72
2022/03/14 09:19:38;;;;;;;1.73;0.60;;;14.70;99.90;;;;;;4993514;28;20784;-73
2022/03/14 09:22:05;;;;;;;2.50;0.67;;;14.30;99.90;;;;;;4992562;28;20439;-73
2022/03/14 09:24:32;;;;;;;1.67;0.60;;;14.00;99.90;;;;;;4993127;28;20279;-73
2022/03/14 09:26:59;;;;;;;3.80;1.23;;;13.60;99.90;;;;;;4993630;28;20533;-74
2022/03/14 09:29:26;;;;;;;8.23;1.17;;;13.80;99.90;;;;;;4991659;28;21057;-73
2022/03/14 09:31:52;;;;;;;2.77;1.03;;;14.50;99.90;;;;;;4976416;28;20449;-74
2022/03/14 09:34:18;;;;;;;1.20;0.60;;;15.10;99.90;;;;;;4992620;28;20410;-74
2022/03/14 09:36:45;;;;;;;3.70;1.00;;;15.10;99.90;;;;;;4992566;28;20214;-74
2022/03/14 09:39:13;;;;;;;4.77;1.10;;;15.40;99.90;;;;;;4975964;28;20191;-73
2022/03/14 09:41:41;;;;;;;2.20;1.17;;;15.90;99.90;;;;;;4993124;28;20481;-74
2022/03/14 09:44:09;;;;;;;3.07;0.73;;;16.40;99.90;;;;;;4992239;28;20430;-73
2022/03/14 09:46:37;;;;;;;3.40;1.10;;;16.20;99.90;;;;;;4993333;28;20989;-73
2022/03/14 09:49:03;;;;;;;1.10;0.70;;;16.30;99.90;;;;;;4993008;28;20423;-73
2022/03/14 09:51:29;;;;;;;6.00;0.90;;;16.00;99.90;;;;;;4975269;28;20437;-73
2022/03/14 09:53:55;;;;;;;3.37;1.27;;;15.30;99.90;;;;;;4992577;28;20186;-73
2022/03/14 09:56:21;;;;;;;3.67;0.90;;;15.10;99.90;;;;;;4991807;28;20278;-73
2022/03/14 09:58:47;;;;;;;3.30;1.03;;;15.10;99.90;;;;;;4991339;28;20438;-72
2022/03/14 10:01:13;;;;;;;5.27;1.20;;;15.00;99.90;;;;;;4991414;28;20450;-74
2022/03/14 10:03:39;;;;;;;2.43;0.80;;;15.00;99.90;;;;;;4989798;28;21001;-74
2022/03/14 10:06:05;;;;;;;4.60;0.70;;;15.10;99.90;;;;;;4991281;28;20466;-74
2022/03/14 10:08:32;;;;;;;1.93;0.93;;;15.60;99.90;;;;;;4990015;28;20270;-75
2022/03/14 10:10:57;;;;;;;4.70;0.60;;;15.90;99.90;;;;;;4992952;28;20278;-75
2022/03/14 10:13:24;;;;;;;2.07;1.30;;;15.90;99.90;;;;;;4990019;28;20497;-75
2022/03/14 10:15:51;;;;;;;6.00;0.90;;;15.80;99.90;;;;;;4992786;28;20656;-76
2022/03/14 10:18:20;;;;;;;3.50;0.80;;;16.70;99.90;;;;;;4991596;28;20430;-75
2022/03/14 10:20:57;;;;;;;2.10;0.60;;;17.50;99.90;;;;;;4975594;28;20422;-75
2022/03/14 10:23:43;;;;;;;4.83;0.73;;;17.80;99.90;;;;;;4989478;28;20514;-75
2022/03/14 10:26:11;;;;;;;5.07;0.80;;;17.80;99.90;;;;;;4991075;28;20476;-75
2022/03/14 10:28:38;;;;;;;3.23;0.90;;;17.70;99.90;;;;;;4990999;28;20951;-74
2022/03/14 10:31:05;;;;;;;1.93;0.80;;;17.20;99.90;;;;;;4991135;28;20457;-74
2022/03/14 10:33:32;;;;;;;3.33;0.73;;;17.50;99.90;;;;;;4974070;28;20437;-75
2022/03/14 10:35:59;;;;;;;2.50;0.83;;;17.90;99.90;;;;;;4990961;28;20488;-74
2022/03/14 10:38:26;;;;;;;2.03;0.77;;;18.00;99.90;;;;;;4990802;28;20428;-75
2022/03/14 10:40:52;;;;;;;2.30;1.00;;;18.30;99.90;;;;;;4991323;28;20469;-77
2022/03/14 10:43:26;;;;;;;1.43;0.60;;;18.30;99.90;;;;;;4973858;28;20517;-74
2022/03/14 10:45:54;;;;;;;3.50;1.20;;;18.10;99.90;;;;;;4990901;28;20464;-75
2022/03/14 10:48:43;;;;;;;1.73;1.50;;;18.00;99.90;;;;;;4990803;28;20469;-74
2022/03/14 10:51:18;;;;;;;3.57;0.93;;;18.00;99.90;;;;;;4990615;28;20439;-75
2022/03/14 10:53:45;;;;;;;3.10;1.00;;;18.10;99.90;;;;;;4990766;28;20422;-75
2022/03/14 10:56:11;;;;;;;3.37;1.00;;;17.80;99.90;;;;;;4989472;28;20419;-74
2022/03/14 10:58:39;;;;;;;1.97;0.73;;;17.30;99.90;;;;;;4990660;28;20480;-73
2022/03/14 11:01:06;;;;;;;5.83;1.87;;;16.90;99.90;;;;;;4990780;28;20456;-74
2022/03/14 11:03:33;;;;;;;1.37;0.80;;;16.40;99.90;;;;;;4989905;28;20950;-73
2022/03/14 11:06:07;;;;;;;1.77;1.20;;;16.60;99.90;;;;;;4992492;28;20466;-75
2022/03/14 11:08:38;;;;;;;1.77;0.70;;;17.20;99.90;;;;;;4990601;28;20422;-76
2022/03/14 11:11:08;;;;;;;1.93;0.70;;;17.70;99.90;;;;;;4990692;28;20849;-75
2022/03/14 11:13:43;;;;;;;1.83;1.10;;;17.60;99.90;;;;;;4989763;28;20918;-75
2022/03/14 11:16:26;;;;;;;2.13;0.97;;;17.90;99.90;;;;;;4990623;28;20444;-75
2022/03/14 11:18:53;;;;;;;3.67;1.60;;;17.80;99.90;;;;;;4991566;28;20500;-74
2022/03/14 11:21:24;;;;;;;4.53;3.00;;;17.40;99.90;;;;;;4990734;28;20434;-73
2022/03/14 11:23:51;;;;;;;1.70;1.37;;;17.00;99.90;;;;;;4989435;28;20426;-73
2022/03/14 11:26:25;;;;;;;4.10;1.10;;;17.30;99.90;;;;;;4989823;28;20455;-73
2022/03/14 11:28:52;;;;;;;2.93;0.90;;;17.30;99.90;;;;;;4991871;28;20423;-73
2022/03/14 11:31:21;;;;;;;2.77;1.20;;;17.40;99.90;;;;;;4995982;28;20457;-73
2022/03/14 11:33:48;;;;;;;3.53;2.07;;;17.30;99.90;;;;;;4995407;28;20454;-72
2022/03/14 11:36:18;;;;;;;4.80;3.30;;;17.10;99.80;;;;;;5002319;28;20433;-74
2022/03/14 11:38:44;;;;;;;2.60;0.90;;;17.20;99.90;;;;;;5001007;28;20414;-74
2022/03/14 11:41:10;;;;;;;2.33;2.13;;;17.20;99.20;;;;;;5004037;28;20449;-74
2022/03/14 11:43:39;;;;;;;3.43;2.10;;;17.20;99.90;;;;;;5004168;28;20275;-73
2022/03/14 11:46:05;;;;;;;8.87;4.30;;;17.50;99.90;;;;;;4994728;28;20493;-75
2022/03/14 11:48:33;;;;;;;5.30;1.80;;;17.20;99.90;;;;;;5000314;28;20421;-76
2022/03/14 11:51:06;;;;;;;5.43;2.77;;;17.20;99.90;;;;;;5002507;28;20204;-75
2022/03/14 11:53:33;;;;;;;16.33;7.20;;;17.40;99.90;;;;;;4991331;28;20464;-74
2022/03/14 11:56:08;;;;;;;2.90;1.47;;;17.50;99.80;;;;;;4992087;28;20419;-74
2022/03/14 11:58:41;;;;;;;3.23;0.50;;;17.10;98.50;;;;;;4991963;28;20410;-74
2022/03/14 12:01:28;;;;;;;3.13;1.00;;;17.10;98.60;;;;;;4991506;28;20529;-74
2022/03/14 12:03:58;;;;;;;7.43;1.10;;;17.50;99.90;;;;;;4991310;28;20414;-74
2022/03/14 12:06:46;;;;;;;4.03;1.00;;;17.60;99.60;;;;;;4990414;28;20458;-75
2022/03/14 12:09:23;;;;;;;1.37;0.60;;;17.60;99.10;;;;;;4992429;28;20419;-75
2022/03/14 12:11:50;;;;;;;0.87;0.60;;;17.30;99.40;;;;;;4991886;28;20433;-75
2022/03/14 12:14:39;;;;;;;2.97;1.03;;;16.70;98.80;;;;;;4990439;28;20780;-78
2022/03/14 12:17:24;;;;;;;1.70;0.87;;;15.80;99.10;;;;;;4992588;28;20421;-73
2022/03/14 12:19:52;;;;;;;2.07;0.80;;;15.70;99.90;;;;;;4990612;28;20430;-75
2022/03/14 12:22:30;;;;;;;5.53;0.73;;;16.00;99.90;;;;;;4992218;28;20448;-75
2022/03/14 12:24:57;;;;;;;2.03;0.83;;;15.80;99.30;;;;;;4991255;28;20484;-76
2022/03/14 12:27:33;;;;;;;0.90;0.70;;;15.50;99.90;;;;;;4991835;28;20466;-77
2022/03/14 12:30:00;;;;;;;3.23;0.87;;;15.40;99.90;;;;;;4992193;28;20424;-74
2022/03/14 12:32:38;;;;;;;1.23;0.73;;;15.60;99.90;;;;;;4991690;28;20449;-78
2022/03/14 12:35:25;;;;;;;4.07;0.80;;;16.00;99.90;;;;;;4990731;28;20409;-79
2022/03/14 12:38:11;;;;;;;2.93;0.60;;;16.40;99.90;;;;;;4994433;28;20425;-75
2022/03/14 12:40:36;;;;;;;2.47;0.63;;;16.60;99.90;;;;;;4988023;28;20418;-76
2022/03/14 12:43:21;;;;;;;3.20;1.00;;;16.60;99.60;;;;;;4991676;28;20824;-77
2022/03/14 12:45:49;;;;;;;3.50;0.70;;;16.80;99.90;;;;;;4996796;28;20206;-74
2022/03/14 12:48:16;;;;;;;2.30;0.73;;;16.80;99.00;;;;;;4996025;28;20421;-75
2022/03/14 12:50:48;;;;;;;2.20;0.70;;;16.90;99.90;;;;;;4995873;28;20415;-76
2022/03/14 12:53:38;;;;;;;2.30;0.87;;;16.80;98.50;;;;;;4995590;28;20486;-75
2022/03/14 12:56:17;;;;;;;2.73;0.70;;;16.80;99.90;;;;;;4996478;28;20489;-77
2022/03/14 12:58:53;;;;;;;4.10;1.23;;;16.80;99.90;;;;;;4995853;28;20416;-75
2022/03/14 13:01:19;;;;;;;2.00;0.60;;;16.60;99.90;;;;;;4995975;28;20560;-76
2022/03/14 13:03:46;;;;;;;1.83;0.97;;;16.70;99.90;;;;;;4993729;28;20542;-75
2022/03/14 13:06:12;;;;;;;0.90;0.70;;;16.70;99.80;;;;;;4995970;28;20461;-76
2022/03/14 13:08:49;;;;;;;1.13;0.60;;;16.80;99.90;;;;;;4995115;28;20981;-80
2022/03/14 13:11:15;;;;;;;7.07;0.57;;;16.70;99.90;;;;;;4995677;28;20191;-77
2022/03/14 13:13:42;;;;;;;1.17;0.70;;;16.70;99.90;;;;;;4994823;28;20430;-77
2022/03/14 13:16:07;;;;;;;2.70;0.50;;;16.60;99.90;;;;;;4995511;28;20422;-80
2022/03/14 13:18:36;;;;;;;2.00;0.60;;;16.60;99.90;;;;;;4995986;28;20426;-76
2022/03/14 13:21:26;;;;;;;0.60;0.60;;;16.30;99.90;;;;;;4997102;28;20199;-76
2022/03/14 13:23:55;;;;;;;3.77;2.63;;;16.10;99.90;;;;;;5003722;28;20437;-75
2022/03/14 13:26:22;;;;;;;1.63;0.80;;;15.90;99.90;;;;;;4994734;28;20468;-74
2022/03/14 13:28:49;;;;;;;3.23;0.70;;;15.80;99.90;;;;;;4994413;28;20419;-76
2022/03/14 13:31:15;;;;;;;2.20;0.70;;;15.70;99.90;;;;;;4993863;28;20953;-76
2022/03/14 13:33:43;;;;;;;3.53;0.90;;;15.70;99.90;;;;;;4993721;28;20418;-76
2022/03/14 13:36:11;;;;;;;3.03;0.60;;;15.60;99.90;;;;;;4993945;28;20430;-76
2022/03/14 13:38:40;;;;;;;1.60;0.70;;;15.60;99.90;;;;;;4993741;28;20504;-74
2022/03/14 13:41:15;;;;;;;4.00;1.10;;;15.40;99.90;;;;;;4993387;28;20441;-76
2022/03/14 13:43:43;;;;;;;3.50;0.63;;;15.40;99.90;;;;;;4992995;28;20424;-76
2022/03/14 13:46:29;;;;;;;1.43;0.83;;;15.40;99.90;;;;;;4993135;28;20450;-76
2022/03/14 13:49:12;;;;;;;1.83;0.57;;;15.50;99.90;;;;;;4993066;28;20938;-73
2022/03/14 13:51:39;;;;;;;1.30;0.73;;;15.50;99.90;;;;;;4991689;28;20438;-76
2022/03/14 13:54:12;;;;;;;2.23;0.70;;;15.40;99.90;;;;;;4995587;28;20418;-74
2022/03/14 13:56:43;;;;;;;1.60;0.90;;;15.40;99.90;;;;;;4993556;28;20425;-75
2022/03/14 13:59:27;;;;;;;1.13;0.80;;;15.30;99.90;;;;;;4992002;28;20458;-74
2022/03/14 14:01:55;;;;;;;2.93;1.07;;;15.40;99.90;;;;;;4993295;28;20500;-74
2022/03/14 14:04:26;;;;;;;2.87;0.80;;;15.30;99.90;;;;;;4994719;28;20418;-76
2022/03/14 14:06:54;;;;;;;3.13;0.60;;;15.20;99.90;;;;;;4993119;28;20465;-74
2022/03/14 14:09:24;;;;;;;3.40;0.60;;;15.20;99.90;;;;;;4992959;28;20426;-74
2022/03/14 14:12:18;;;;;;;1.40;0.70;;;15.10;99.90;;;;;;4992472;28;20453;-75
2022/03/14 14:14:49;;;;;;;3.07;0.70;;;15.20;99.90;;;;;;4992647;28;20893;-76
2022/03/14 14:17:20;;;;;;;3.77;0.90;;;15.20;99.90;;;;;;4992928;28;20927;-76
2022/03/14 14:20:20;;;;;;;5.30;0.77;;;15.10;99.90;;;;;;4992652;28;20923;-74
2022/03/14 14:23:01;;;;;;;2.83;0.67;;;15.10;99.90;;;;;;4992240;28;20434;-73